Time;durP1;ratioP1;P1;durP2;ratioP2;P2;SDS_P1;SDS_P2;PMS_P1;PMS_P2;Temp;Humidity;BMP_temperature;BMP_pressure;BME280_temperature;BME280_humidity;BME280_pressure;Samples;Min_cycle;Max_cycle;Signal;HPM_P1;HPM_P2
2022/07/05 00:01:06;;;;;;;2.27;2.07;;;18.10;99.90;;;;;;5030925;28;20448;-70
2022/07/05 00:03:33;;;;;;;2.83;2.23;;;18.20;99.90;;;;;;5024590;28;20460;-69
2022/07/05 00:06:00;;;;;;;4.53;2.20;;;18.10;99.90;;;;;;5022215;28;20460;-70
2022/07/05 00:08:27;;;;;;;4.40;2.40;;;18.10;99.90;;;;;;5028888;28;20467;-69
2022/07/05 00:10:54;;;;;;;2.47;1.90;;;18.00;99.90;;;;;;5033295;28;20455;-69
2022/07/05 00:13:22;;;;;;;2.47;1.70;;;17.80;99.90;;;;;;5034422;28;20469;-70
2022/07/05 00:15:50;;;;;;;3.67;3.37;;;17.80;99.90;;;;;;5030290;28;20509;-70
2022/07/05 00:18:17;;;;;;;2.30;1.60;;;17.80;99.90;;;;;;5023109;28;20470;-70
2022/07/05 00:20:45;;;;;;;5.13;1.70;;;17.80;99.90;;;;;;5017584;28;20461;-69
2022/07/05 00:23:12;;;;;;;2.33;2.13;;;17.80;99.90;;;;;;5030325;28;21037;-69
2022/07/05 00:25:39;;;;;;;2.40;2.20;;;17.90;99.90;;;;;;5024596;28;20823;-70
2022/07/05 00:28:06;;;;;;;2.90;2.20;;;17.90;99.90;;;;;;5023073;28;20994;-69
2022/07/05 00:30:34;;;;;;;2.10;1.90;;;17.60;99.90;;;;;;5030377;28;20459;-69
2022/07/05 00:33:01;;;;;;;2.20;2.00;;;17.40;99.90;;;;;;5033551;28;20983;-70
2022/07/05 00:35:28;;;;;;;5.23;2.07;;;17.20;99.90;;;;;;5033846;28;20510;-70
2022/07/05 00:37:55;;;;;;;3.00;2.23;;;17.20;99.90;;;;;;5027162;28;20460;-70
2022/07/05 00:40:22;;;;;;;2.47;2.27;;;17.20;99.90;;;;;;5024871;28;20461;-70
2022/07/05 00:42:49;;;;;;;2.60;2.40;;;17.10;99.90;;;;;;5022614;28;20481;-70
2022/07/05 00:45:16;;;;;;;3.80;2.10;;;17.10;99.90;;;;;;5029757;28;21998;-71
2022/07/05 00:47:44;;;;;;;2.27;2.00;;;17.10;99.90;;;;;;5027412;28;20968;-70
2022/07/05 00:50:11;;;;;;;3.10;1.80;;;17.20;99.90;;;;;;5025509;28;20441;-70
2022/07/05 00:52:38;;;;;;;2.40;2.20;;;17.20;99.90;;;;;;5027787;28;21524;-70
2022/07/05 00:55:05;;;;;;;2.87;1.70;;;17.10;99.90;;;;;;5015366;28;20447;-70
2022/07/05 00:57:34;;;;;;;2.43;2.20;;;17.00;99.90;;;;;;5019009;28;20433;-69
2022/07/05 01:00:02;;;;;;;2.37;2.17;;;16.90;99.90;;;;;;5023037;28;20472;-70
2022/07/05 01:02:29;;;;;;;2.90;2.33;;;16.90;99.90;;;;;;5019336;28;20491;-70
2022/07/05 01:04:58;;;;;;;5.17;2.47;;;16.90;99.90;;;;;;5028240;28;20483;-70
2022/07/05 01:07:25;;;;;;;2.00;1.80;;;17.00;99.90;;;;;;5025993;28;20457;-70
2022/07/05 01:09:52;;;;;;;4.73;2.00;;;17.10;99.90;;;;;;5038095;28;20464;-70
2022/07/05 01:12:19;;;;;;;1.80;1.70;;;17.20;99.90;;;;;;5026920;28;21140;-70
2022/07/05 01:14:47;;;;;;;5.10;2.67;;;17.00;99.90;;;;;;5024790;28;20464;-70
2022/07/05 01:17:14;;;;;;;2.50;1.73;;;17.00;99.90;;;;;;5030489;28;20453;-70
2022/07/05 01:19:41;;;;;;;2.63;2.13;;;17.10;99.90;;;;;;5036132;28;20538;-71
2022/07/05 01:22:16;;;;;;;1.80;1.60;;;17.00;99.90;;;;;;5034202;28;20479;-70
2022/07/05 01:24:45;;;;;;;3.23;2.33;;;17.00;99.90;;;;;;5025990;28;20491;-70
2022/07/05 01:27:12;;;;;;;2.20;1.93;;;17.10;99.90;;;;;;5025242;28;20462;-70
2022/07/05 01:29:39;;;;;;;3.63;2.10;;;17.10;99.90;;;;;;5025442;28;20455;-70
2022/07/05 01:32:07;;;;;;;1.70;1.57;;;17.30;99.90;;;;;;5034776;28;20491;-70
2022/07/05 01:34:37;;;;;;;6.50;1.97;;;17.20;99.90;;;;;;5033132;28;20494;-70
2022/07/05 01:37:05;;;;;;;2.07;1.87;;;17.20;99.90;;;;;;5040611;28;20464;-70
2022/07/05 01:39:32;;;;;;;3.30;2.17;;;17.20;99.90;;;;;;5025703;28;20453;-69
2022/07/05 01:42:00;;;;;;;2.20;1.87;;;17.10;99.90;;;;;;5034450;28;20957;-69
2022/07/05 01:44:27;;;;;;;2.90;2.20;;;17.00;99.90;;;;;;5035390;28;20478;-69
2022/07/05 01:46:59;;;;;;;6.73;2.13;;;17.00;99.90;;;;;;5034686;28;20464;-69
2022/07/05 01:49:28;;;;;;;3.03;1.90;;;17.10;99.90;;;;;;5033332;28;20456;-69
2022/07/05 01:51:59;;;;;;;3.27;2.43;;;17.20;99.90;;;;;;5029346;28;20544;-70
2022/07/05 01:54:26;;;;;;;2.60;2.13;;;17.30;99.90;;;;;;5034746;28;20546;-70
2022/07/05 01:56:53;;;;;;;3.07;2.03;;;17.30;99.90;;;;;;5028406;28;20509;-70
2022/07/05 01:59:21;;;;;;;2.80;2.50;;;17.20;99.90;;;;;;5030213;28;20471;-70
2022/07/05 02:01:48;;;;;;;3.17;2.87;;;17.10;99.90;;;;;;5025257;28;20583;-70
2022/07/05 02:04:15;;;;;;;1.90;1.70;;;17.10;99.90;;;;;;5030349;28;20490;-70
2022/07/05 02:06:45;;;;;;;2.93;1.97;;;16.90;99.90;;;;;;5026872;28;20544;-70
2022/07/05 02:09:12;;;;;;;5.53;2.03;;;16.80;99.90;;;;;;5028363;28;20464;-71
2022/07/05 02:11:39;;;;;;;2.57;1.93;;;16.90;99.90;;;;;;5029461;28;20467;-70
2022/07/05 02:14:06;;;;;;;2.33;2.10;;;17.00;99.90;;;;;;5019968;28;21359;-70
2022/07/05 02:16:34;;;;;;;2.73;2.10;;;17.10;99.90;;;;;;5026027;28;21287;-70
2022/07/05 02:19:01;;;;;;;3.27;2.60;;;17.20;99.90;;;;;;5022710;28;20460;-70
2022/07/05 02:21:28;;;;;;;2.80;2.13;;;17.10;99.90;;;;;;5032819;28;20456;-70
2022/07/05 02:23:55;;;;;;;2.10;1.90;;;17.00;99.90;;;;;;5022740;28;20462;-70
2022/07/05 02:26:22;;;;;;;2.20;2.00;;;17.00;99.90;;;;;;5037295;28;20430;-70
2022/07/05 02:28:49;;;;;;;3.50;3.20;;;17.00;99.90;;;;;;5034367;28;20493;-70
2022/07/05 02:31:19;;;;;;;2.90;2.57;;;16.90;99.90;;;;;;5032850;28;20980;-70
2022/07/05 02:33:47;;;;;;;2.40;2.10;;;16.90;99.90;;;;;;5032486;28;20905;-70
2022/07/05 02:36:14;;;;;;;2.60;2.40;;;16.90;99.90;;;;;;5027624;28;20976;-70
2022/07/05 02:38:42;;;;;;;2.77;2.57;;;16.80;99.90;;;;;;5042967;28;20465;-70
2022/07/05 02:41:10;;;;;;;3.43;2.57;;;16.70;99.90;;;;;;5034862;28;20846;-70
2022/07/05 02:43:38;;;;;;;2.70;2.40;;;16.70;99.90;;;;;;5031572;28;20487;-70
2022/07/05 02:46:06;;;;;;;4.83;2.30;;;16.60;99.90;;;;;;5034982;28;20820;-70
2022/07/05 02:48:34;;;;;;;17.73;2.07;;;16.50;99.90;;;;;;5037156;28;20460;-71
2022/07/05 02:51:04;;;;;;;6.93;3.13;;;16.40;99.90;;;;;;5031976;28;20459;-70
2022/07/05 02:53:31;;;;;;;2.03;1.80;;;16.30;99.90;;;;;;5027978;28;20467;-70
2022/07/05 02:55:58;;;;;;;7.17;1.97;;;16.30;99.90;;;;;;5040066;28;20924;-70
2022/07/05 02:58:25;;;;;;;15.50;6.23;;;16.30;99.90;;;;;;5028337;28;20466;-70
2022/07/05 03:00:51;;;;;;;7.10;2.70;;;16.20;99.90;;;;;;5021766;28;20442;-70
2022/07/05 03:03:18;;;;;;;17.57;3.17;;;16.20;99.90;;;;;;5026889;28;20483;-69
2022/07/05 03:05:45;;;;;;;4.17;2.83;;;16.00;99.90;;;;;;5022654;28;20482;-69
2022/07/05 03:08:14;;;;;;;9.70;3.10;;;16.20;99.90;;;;;;5023034;28;20440;-70
2022/07/05 03:10:41;;;;;;;15.43;2.57;;;16.10;99.90;;;;;;5020778;28;20463;-69
2022/07/05 03:13:08;;;;;;;21.53;2.63;;;16.20;99.90;;;;;;5029125;28;20456;-69
2022/07/05 03:15:35;;;;;;;19.20;3.90;;;16.30;99.90;;;;;;5023077;28;20507;-70
2022/07/05 03:18:02;;;;;;;18.93;4.70;;;16.20;99.90;;;;;;5041317;28;20860;-69
2022/07/05 03:20:29;;;;;;;13.77;4.53;;;16.40;99.90;;;;;;5020700;28;20525;-69
2022/07/05 03:22:56;;;;;;;17.90;4.13;;;16.50;99.90;;;;;;5018771;28;21187;-69
2022/07/05 03:25:24;;;;;;;16.70;3.00;;;16.60;99.90;;;;;;5024470;28;20633;-69
2022/07/05 03:27:51;;;;;;;14.13;5.33;;;16.70;99.90;;;;;;5036285;28;20452;-69
2022/07/05 03:30:18;;;;;;;10.07;3.67;;;16.60;99.90;;;;;;5034616;28;20474;-70
2022/07/05 03:32:45;;;;;;;2.70;2.50;;;16.40;99.90;;;;;;5028236;28;20470;-71
2022/07/05 03:35:12;;;;;;;19.20;3.87;;;15.90;99.90;;;;;;5036755;28;23175;-70
2022/07/05 03:37:39;;;;;;;14.33;2.50;;;15.90;99.90;;;;;;5031163;28;20462;-70
2022/07/05 03:40:11;;;;;;;12.00;2.93;;;16.20;99.90;;;;;;5033703;28;20468;-70
2022/07/05 03:42:39;;;;;;;6.23;2.50;;;16.30;99.90;;;;;;5032296;28;20438;-70
2022/07/05 03:45:07;;;;;;;5.40;2.03;;;16.30;99.90;;;;;;5034095;28;20468;-70
2022/07/05 03:47:34;;;;;;;5.03;3.27;;;16.50;99.90;;;;;;5030444;28;20968;-70
2022/07/05 03:50:01;;;;;;;10.00;3.20;;;16.60;99.90;;;;;;5029034;28;20460;-69
2022/07/05 03:52:27;;;;;;;7.20;2.70;;;16.70;99.90;;;;;;5025549;28;20967;-69
2022/07/05 03:54:54;;;;;;;4.77;2.27;;;16.80;99.90;;;;;;5041098;28;20479;-69
2022/07/05 03:57:22;;;;;;;3.93;2.37;;;16.80;99.90;;;;;;5024824;28;20468;-68
2022/07/05 03:59:50;;;;;;;3.30;2.83;;;16.80;99.90;;;;;;5027954;28;20460;-69
2022/07/05 04:02:17;;;;;;;8.63;2.80;;;16.90;99.90;;;;;;5032255;28;20587;-69
2022/07/05 04:04:44;;;;;;;4.10;3.00;;;16.90;99.90;;;;;;5027538;28;20537;-69
2022/07/05 04:07:11;;;;;;;9.73;2.53;;;16.90;99.90;;;;;;5030307;28;20470;-70
2022/07/05 04:09:37;;;;;;;14.33;2.90;;;17.00;99.90;;;;;;5038548;28;20457;-69
2022/07/05 04:12:05;;;;;;;13.50;2.80;;;17.10;99.90;;;;;;5022013;28;20467;-69
2022/07/05 04:17:17;;;;;;;7.43;3.13;;;17.30;99.90;;;;;;5019517;28;20483;-71
2022/07/05 04:19:44;;;;;;;8.30;3.00;;;17.40;99.90;;;;;;5031380;28;20460;-71
2022/07/05 04:22:11;;;;;;;4.47;3.27;;;17.30;99.90;;;;;;5035775;28;20471;-71
2022/07/05 04:27:18;;;;;;;10.43;2.20;;;17.40;99.90;;;;;;4999469;28;21048;-71
2022/07/05 04:29:45;;;;;;;7.33;2.40;;;17.30;99.90;;;;;;5004707;28;20468;-71
2022/07/05 04:32:12;;;;;;;5.13;2.50;;;17.10;99.90;;;;;;5006322;28;20989;-72
2022/07/05 04:34:40;;;;;;;3.77;2.27;;;17.10;99.90;;;;;;5008582;28;20461;-72
2022/07/05 04:37:07;;;;;;;6.13;2.30;;;17.00;99.90;;;;;;5008493;28;20457;-72
2022/07/05 04:39:34;;;;;;;11.37;2.83;;;17.10;99.90;;;;;;5012225;28;20442;-71
2022/07/05 04:42:01;;;;;;;4.97;3.20;;;17.10;99.90;;;;;;5009595;28;20965;-71
2022/07/05 04:44:28;;;;;;;5.87;2.70;;;17.10;99.90;;;;;;5009485;28;20974;-71
2022/07/05 04:46:54;;;;;;;3.90;2.60;;;17.20;99.90;;;;;;5003986;28;20994;-71
2022/07/05 04:49:21;;;;;;;8.50;2.53;;;17.20;99.90;;;;;;5021985;28;21268;-72
2022/07/05 04:51:49;;;;;;;5.87;3.07;;;17.30;99.90;;;;;;5019150;28;20464;-71
2022/07/05 04:54:16;;;;;;;3.23;2.50;;;17.40;99.90;;;;;;5015442;28;20460;-72
2022/07/05 04:56:43;;;;;;;5.17;2.83;;;17.60;99.90;;;;;;5013400;28;20462;-72
2022/07/05 04:59:10;;;;;;;11.40;3.60;;;17.80;99.90;;;;;;5019847;28;20483;-69
2022/07/05 05:01:37;;;;;;;6.00;3.30;;;18.00;99.90;;;;;;5017597;28;20471;-71
2022/07/05 05:04:04;;;;;;;9.10;3.43;;;18.20;99.90;;;;;;5009403;28;20486;-72
2022/07/05 05:06:30;;;;;;;4.30;2.50;;;18.20;99.90;;;;;;5021038;28;20504;-71
2022/07/05 05:08:59;;;;;;;13.73;3.20;;;18.20;99.90;;;;;;5026238;28;20468;-71
2022/07/05 05:11:26;;;;;;;3.83;2.80;;;18.30;99.90;;;;;;5012157;28;20431;-72
2022/07/05 05:13:52;;;;;;;4.70;3.30;;;18.40;99.90;;;;;;5014113;28;20465;-71
2022/07/05 05:16:19;;;;;;;2.60;2.40;;;18.30;99.90;;;;;;5013382;28;20495;-72
2022/07/05 05:18:46;;;;;;;7.93;4.30;;;18.20;99.90;;;;;;5015059;28;20461;-70
2022/07/05 05:21:13;;;;;;;6.33;2.70;;;18.50;99.90;;;;;;5015433;28;20552;-70
2022/07/05 05:23:40;;;;;;;3.40;2.33;;;18.80;99.90;;;;;;5021770;28;20495;-70
2022/07/05 05:26:08;;;;;;;5.73;2.60;;;19.50;99.90;;;;;;5026499;28;20467;-70
2022/07/05 05:28:35;;;;;;;3.90;2.40;;;19.70;99.90;;;;;;5024829;28;21100;-71
2022/07/05 05:31:02;;;;;;;3.40;2.23;;;19.80;99.90;;;;;;5023699;28;20467;-70
2022/07/05 05:33:29;;;;;;;5.63;2.77;;;20.20;99.90;;;;;;5029590;28;20444;-70
2022/07/05 05:35:55;;;;;;;3.67;2.90;;;20.70;99.90;;;;;;5017959;28;20476;-72
2022/07/05 05:38:22;;;;;;;12.03;5.97;;;21.00;99.90;;;;;;5017668;28;20464;-71
2022/07/05 05:40:49;;;;;;;5.53;2.67;;;21.10;99.90;;;;;;5013060;28;20469;-71
2022/07/05 05:43:18;;;;;;;3.57;2.73;;;21.30;99.90;;;;;;5009619;28;20967;-70
2022/07/05 05:45:45;;;;;;;3.13;2.50;;;21.60;99.90;;;;;;5019601;28;20878;-70
2022/07/05 05:48:12;;;;;;;2.43;1.90;;;22.00;99.90;;;;;;5025951;28;20528;-70
2022/07/05 05:50:39;;;;;;;3.67;2.83;;;22.10;99.90;;;;;;5019090;28;20488;-71
2022/07/05 05:53:06;;;;;;;8.17;4.20;;;21.80;99.90;;;;;;5010358;28;20476;-70
2022/07/05 05:55:34;;;;;;;3.80;2.60;;;21.70;99.90;;;;;;5021401;28;20474;-70
2022/07/05 05:58:12;;;;;;;2.27;2.07;;;21.60;99.90;;;;;;5018757;28;20460;-70
2022/07/05 06:00:40;;;;;;;4.50;2.53;;;21.20;99.90;;;;;;5022262;28;20449;-70
2022/07/05 06:03:07;;;;;;;2.40;1.97;;;21.30;99.90;;;;;;5024745;28;20958;-70
2022/07/05 06:05:34;;;;;;;3.67;2.17;;;21.20;99.90;;;;;;5020206;28;20484;-70
2022/07/05 06:08:01;;;;;;;3.93;1.80;;;21.40;99.90;;;;;;5020934;28;20470;-70
2022/07/05 06:10:30;;;;;;;3.20;1.93;;;21.70;99.90;;;;;;5019739;28;20473;-70
2022/07/05 06:12:58;;;;;;;3.00;1.83;;;22.10;99.90;;;;;;5010415;28;20457;-70
2022/07/05 06:15:25;;;;;;;2.63;1.90;;;22.50;99.90;;;;;;5015816;28;20480;-70
2022/07/05 06:17:53;;;;;;;2.93;1.80;;;22.70;99.90;;;;;;5024019;28;20471;-70
2022/07/05 06:20:22;;;;;;;5.67;2.00;;;23.10;99.90;;;;;;5007826;28;21467;-70
2022/07/05 06:22:50;;;;;;;2.90;2.70;;;23.80;99.90;;;;;;5020541;28;20467;-70
2022/07/05 06:25:17;;;;;;;2.90;2.27;;;23.90;99.90;;;;;;5011435;28;20953;-70
2022/07/05 06:27:46;;;;;;;6.93;2.50;;;24.00;99.90;;;;;;5015957;28;20461;-70
2022/07/05 06:30:15;;;;;;;2.93;2.60;;;23.90;99.90;;;;;;5021394;28;20474;-70
2022/07/05 06:32:44;;;;;;;4.27;1.83;;;24.20;99.90;;;;;;5014081;28;20461;-70
2022/07/05 06:35:13;;;;;;;2.23;1.50;;;23.90;99.90;;;;;;5013117;28;20472;-70
2022/07/05 06:37:44;;;;;;;4.23;2.10;;;23.90;99.90;;;;;;5010526;28;20930;-71
2022/07/05 06:40:13;;;;;;;2.70;1.73;;;24.50;99.90;;;;;;5009872;28;20457;-70
2022/07/05 06:42:40;;;;;;;2.50;1.77;;;24.60;99.90;;;;;;5017182;28;20460;-70
2022/07/05 06:45:08;;;;;;;2.60;1.70;;;25.10;99.90;;;;;;5025660;28;20562;-70
2022/07/05 06:47:35;;;;;;;2.00;1.57;;;25.10;99.90;;;;;;5017755;28;20465;-70
2022/07/05 06:50:03;;;;;;;3.20;1.50;;;24.60;99.90;;;;;;5011488;28;20479;-71
2022/07/05 06:52:32;;;;;;;3.17;1.77;;;24.70;99.90;;;;;;5016802;28;20467;-71
2022/07/05 06:55:01;;;;;;;2.80;1.67;;;25.60;99.90;;;;;;5015752;28;20464;-70
2022/07/05 06:57:28;;;;;;;2.50;1.40;;;26.10;99.90;;;;;;5015914;28;20827;-71
2022/07/05 06:59:55;;;;;;;2.00;1.77;;;26.50;99.90;;;;;;5019869;28;20465;-71
2022/07/05 07:02:22;;;;;;;5.73;2.03;;;26.30;99.90;;;;;;5020332;28;20464;-70
2022/07/05 07:04:49;;;;;;;2.40;2.20;;;26.40;99.70;;;;;;5015816;28;20473;-70
2022/07/05 07:10:05;;;;;;;4.37;1.70;;;26.70;96.40;;;;;;4997166;28;20794;-70
2022/07/05 07:12:32;;;;;;;2.47;1.87;;;26.60;97.10;;;;;;5016195;28;20456;-70
2022/07/05 07:14:59;;;;;;;2.37;1.63;;;26.50;98.30;;;;;;5015018;28;20489;-71
2022/07/05 07:17:26;;;;;;;7.83;1.73;;;27.10;96.20;;;;;;5018775;28;20978;-71
2022/07/05 07:19:53;;;;;;;2.47;1.80;;;27.40;96.50;;;;;;5026333;28;20461;-71
2022/07/05 07:22:19;;;;;;;2.57;1.53;;;27.60;95.60;;;;;;5030847;28;20441;-71
2022/07/05 07:24:46;;;;;;;2.20;1.60;;;27.40;94.30;;;;;;5024754;28;20485;-71
2022/07/05 07:27:14;;;;;;;1.70;1.23;;;27.00;94.80;;;;;;5014638;28;21045;-71
2022/07/05 07:29:41;;;;;;;5.57;1.50;;;27.00;95.30;;;;;;5019985;28;20456;-70
2022/07/05 07:32:09;;;;;;;1.50;1.40;;;26.60;92.80;;;;;;5018565;28;20460;-70
2022/07/05 07:34:37;;;;;;;3.00;1.57;;;26.00;94.40;;;;;;5014871;28;20464;-71
2022/07/05 07:37:05;;;;;;;1.77;1.43;;;25.40;95.00;;;;;;5012723;28;20482;-71
2022/07/05 07:39:32;;;;;;;3.10;1.30;;;25.60;95.70;;;;;;5010645;28;20467;-71
2022/07/05 07:41:59;;;;;;;2.20;1.30;;;25.90;95.90;;;;;;5025107;28;20460;-71
2022/07/05 07:44:28;;;;;;;1.50;1.40;;;26.80;94.90;;;;;;5023554;28;20630;-71
2022/07/05 07:46:55;;;;;;;5.00;1.50;;;27.40;92.90;;;;;;5015074;28;20491;-71
2022/07/05 07:49:22;;;;;;;1.83;1.30;;;26.80;93.00;;;;;;5015093;28;20466;-71
2022/07/05 07:51:49;;;;;;;3.20;1.83;;;27.50;93.10;;;;;;5028020;28;20468;-71
2022/07/05 07:54:16;;;;;;;1.63;1.40;;;28.00;90.80;;;;;;5018895;28;20453;-71
2022/07/05 07:56:43;;;;;;;2.50;2.00;;;27.30;92.00;;;;;;5022079;28;20514;-71
2022/07/05 07:59:10;;;;;;;1.70;1.60;;;26.60;91.80;;;;;;5012252;28;20870;-71
2022/07/05 08:01:38;;;;;;;10.03;1.97;;;27.00;91.80;;;;;;5015815;28;20460;-70
2022/07/05 08:04:05;;;;;;;2.20;1.77;;;27.30;92.00;;;;;;5022863;28;20476;-71
2022/07/05 08:06:32;;;;;;;2.23;1.97;;;26.60;91.80;;;;;;5014731;28;20807;-71
2022/07/05 08:08:59;;;;;;;2.00;1.43;;;26.50;92.80;;;;;;5027983;28;20456;-70
2022/07/05 08:11:26;;;;;;;5.30;1.73;;;26.20;93.00;;;;;;5016048;28;20460;-70
2022/07/05 08:13:53;;;;;;;3.03;1.80;;;25.60;94.00;;;;;;5015604;28;20465;-72
2022/07/05 08:16:19;;;;;;;2.77;1.60;;;25.20;93.90;;;;;;5028930;28;20484;-71
2022/07/05 08:21:32;;;;;;;1.90;1.33;;;26.40;93.50;;;;;;5020971;28;20494;-72
2022/07/05 08:23:59;;;;;;;4.17;2.07;;;27.30;91.30;;;;;;5021222;28;20461;-72
2022/07/05 08:26:26;;;;;;;1.63;1.50;;;28.20;90.30;;;;;;5023284;28;20540;-69
2022/07/05 08:28:53;;;;;;;2.23;1.47;;;28.20;89.70;;;;;;5020835;28;20465;-71
2022/07/05 08:31:20;;;;;;;2.73;1.97;;;28.30;90.10;;;;;;5018416;28;20468;-71
2022/07/05 08:33:49;;;;;;;5.00;1.90;;;28.40;87.90;;;;;;5018228;28;20461;-71
2022/07/05 08:36:15;;;;;;;3.70;2.23;;;28.00;88.40;;;;;;5021572;28;20482;-71
2022/07/05 08:38:42;;;;;;;2.20;1.70;;;27.20;87.90;;;;;;5021073;28;20963;-71
2022/07/05 08:41:11;;;;;;;4.80;1.63;;;26.00;90.10;;;;;;5027374;28;20445;-70
2022/07/05 08:43:42;;;;;;;2.37;1.30;;;26.50;92.20;;;;;;5018116;28;20476;-70
2022/07/05 08:46:10;;;;;;;2.03;1.57;;;27.70;89.20;;;;;;5018671;28;20485;-71
2022/07/05 08:48:41;;;;;;;2.40;1.63;;;28.10;87.10;;;;;;5014942;28;20480;-71
2022/07/05 08:51:12;;;;;;;4.60;2.03;;;27.20;87.90;;;;;;5020838;28;20464;-71
2022/07/05 08:53:40;;;;;;;1.57;1.43;;;28.40;87.50;;;;;;5012769;28;20480;-70
2022/07/05 08:56:09;;;;;;;3.90;1.73;;;29.20;84.10;;;;;;5019683;28;21166;-71
2022/07/05 08:58:36;;;;;;;2.03;1.80;;;29.30;82.10;;;;;;5015430;28;20460;-71
2022/07/05 09:01:04;;;;;;;3.43;1.97;;;29.50;80.80;;;;;;5012828;28;20552;-71
2022/07/05 09:03:34;;;;;;;2.63;2.00;;;28.80;82.40;;;;;;5019871;28;20926;-71
2022/07/05 09:06:02;;;;;;;3.07;1.60;;;27.40;85.30;;;;;;5023565;28;20510;-71
2022/07/05 09:08:38;;;;;;;2.00;1.80;;;27.10;86.80;;;;;;5026873;28;20453;-71
2022/07/05 09:11:06;;;;;;;1.87;1.67;;;26.50;87.70;;;;;;5016874;28;20468;-70
2022/07/05 09:13:34;;;;;;;2.50;1.87;;;26.00;90.00;;;;;;5016058;28;20463;-72
2022/07/05 09:16:01;;;;;;;2.10;1.80;;;25.70;90.40;;;;;;5019401;28;20516;-71
2022/07/05 09:18:45;;;;;;;2.30;1.57;;;26.10;89.50;;;;;;5024552;28;20952;-71
2022/07/05 09:21:20;;;;;;;3.57;3.27;;;27.10;88.10;;;;;;5007152;28;21062;-71
2022/07/05 09:23:55;;;;;;;2.63;1.70;;;28.60;85.00;;;;;;5025231;28;20510;-72
2022/07/05 09:26:27;;;;;;;3.63;1.93;;;29.00;83.40;;;;;;5013250;28;20488;-72
2022/07/05 09:28:57;;;;;;;2.30;1.50;;;29.10;77.00;;;;;;5007708;28;20535;-71
2022/07/05 09:31:29;;;;;;;2.30;1.60;;;29.20;79.70;;;;;;5014637;28;20555;-71
2022/07/05 09:34:04;;;;;;;3.30;1.73;;;29.90;76.70;;;;;;5017779;28;20468;-72
2022/07/05 09:36:48;;;;;;;1.80;1.40;;;30.20;73.60;;;;;;5013690;28;20479;-72
2022/07/05 09:39:16;;;;;;;3.97;1.83;;;30.60;73.20;;;;;;5009546;28;20897;-71
2022/07/05 09:41:43;;;;;;;2.90;1.57;;;31.20;71.80;;;;;;5019997;28;20465;-72
2022/07/05 09:44:10;;;;;;;1.63;1.53;;;31.00;68.00;;;;;;5014711;28;20465;-72
2022/07/05 09:46:37;;;;;;;2.57;2.37;;;30.20;68.00;;;;;;5008516;28;20518;-72
2022/07/05 09:49:04;;;;;;;2.90;1.60;;;29.80;68.20;;;;;;5014242;28;20461;-72
2022/07/05 09:51:48;;;;;;;1.63;1.53;;;29.30;68.90;;;;;;5016825;28;21129;-72
2022/07/05 09:54:16;;;;;;;2.23;1.40;;;30.00;71.30;;;;;;5016476;28;20487;-71
2022/07/05 09:56:47;;;;;;;1.33;1.13;;;30.70;69.80;;;;;;5025458;28;20538;-70
2022/07/05 09:59:16;;;;;;;1.70;1.20;;;31.60;65.50;;;;;;5018445;28;21247;-71
2022/07/05 10:01:43;;;;;;;5.77;2.37;;;31.00;61.90;;;;;;5022963;28;20827;-73
2022/07/05 10:04:10;;;;;;;1.60;1.50;;;31.30;64.90;;;;;;5019306;28;20461;-72
2022/07/05 10:06:37;;;;;;;3.50;1.70;;;30.70;63.40;;;;;;5019188;28;20628;-71
2022/07/05 10:09:05;;;;;;;2.30;1.83;;;29.20;65.40;;;;;;5023217;28;20482;-72
2022/07/05 10:11:35;;;;;;;1.40;1.10;;;28.10;65.70;;;;;;5016905;28;21189;-71
2022/07/05 10:14:10;;;;;;;2.93;1.70;;;27.60;68.60;;;;;;5012033;28;20465;-72
2022/07/05 10:16:37;;;;;;;1.67;1.40;;;28.10;68.10;;;;;;5052436;22;20868;-70
2022/07/05 10:19:06;;;;;;;1.90;1.30;;;29.00;65.00;;;;;;5040011;28;20481;-71
2022/07/05 10:21:33;;;;;;;3.03;1.70;;;29.90;62.30;;;;;;5054705;28;20455;-70
2022/07/05 10:24:00;;;;;;;2.50;1.40;;;29.50;62.70;;;;;;5055822;28;20868;-70
2022/07/05 10:26:32;;;;;;;1.63;1.43;;;29.90;61.60;;;;;;5050234;28;20479;-70
2022/07/05 10:29:02;;;;;;;1.50;1.40;;;30.70;58.00;;;;;;5051220;28;20466;-70
2022/07/05 10:31:31;;;;;;;7.93;1.80;;;31.20;57.90;;;;;;5055513;28;20632;-70
2022/07/05 10:34:00;;;;;;;2.90;1.10;;;31.90;58.10;;;;;;5068098;28;20453;-70
2022/07/05 10:36:27;;;;;;;1.60;1.40;;;30.60;58.50;;;;;;5058274;28;20452;-70
2022/07/05 10:38:54;;;;;;;1.50;1.40;;;30.50;59.00;;;;;;5054328;28;20481;-70
2022/07/05 10:41:25;;;;;;;2.87;1.30;;;30.60;57.70;;;;;;5054219;28;20536;-70
2022/07/05 10:43:54;;;;;;;1.60;1.30;;;29.60;59.30;;;;;;5055391;28;20459;-70
2022/07/05 10:46:35;;;;;;;2.00;1.40;;;29.20;60.60;;;;;;5052913;28;20562;-70
2022/07/05 10:49:14;;;;;;;2.60;1.77;;;28.50;60.40;;;;;;5053058;28;20452;-69
2022/07/05 10:51:41;;;;;;;2.13;1.67;;;28.20;58.10;;;;;;5050298;28;21023;-70
2022/07/05 10:54:08;;;;;;;3.10;2.50;;;27.00;60.50;;;;;;5048278;28;20558;-70
2022/07/05 10:56:36;;;;;;;2.40;1.67;;;26.40;59.80;;;;;;5056515;28;20475;-70
2022/07/05 10:59:11;;;;;;;5.90;1.80;;;25.90;62.40;;;;;;5064594;28;20543;-70
2022/07/05 11:01:41;;;;;;;3.60;1.80;;;25.80;61.20;;;;;;5059401;28;20458;-70
2022/07/05 11:04:19;;;;;;;1.40;1.30;;;26.30;65.10;;;;;;5058513;28;20987;-70
2022/07/05 11:06:49;;;;;;;4.20;1.60;;;28.70;62.00;;;;;;5057205;28;20487;-71
2022/07/05 11:09:20;;;;;;;1.57;1.10;;;30.20;57.30;;;;;;5053590;28;20459;-70
2022/07/05 11:12:01;;;;;;;1.63;1.50;;;30.80;55.70;;;;;;5058307;28;20509;-71
2022/07/05 11:14:32;;;;;;;1.60;1.20;;;31.10;54.70;;;;;;5057760;28;20970;-71
2022/07/05 11:17:34;;;;;;;2.27;1.43;;;31.30;54.60;;;;;;5053507;28;20483;-69
2022/07/05 11:20:13;;;;;;;5.43;1.60;;;31.30;52.60;;;;;;5060330;28;20499;-70
2022/07/05 11:22:42;;;;;;;1.40;1.17;;;31.90;53.40;;;;;;5060405;28;20458;-69
2022/07/05 11:25:11;;;;;;;2.50;1.50;;;32.80;51.50;;;;;;5057555;28;20455;-70
2022/07/05 11:28:06;;;;;;;1.50;1.40;;;32.10;52.20;;;;;;5058728;28;20507;-70
2022/07/05 11:30:55;;;;;;;2.43;1.57;;;31.70;51.00;;;;;;5056111;28;20459;-70
2022/07/05 11:33:33;;;;;;;6.17;1.60;;;30.30;51.40;;;;;;5053459;28;20473;-70
2022/07/05 11:36:01;;;;;;;1.90;1.50;;;28.70;54.90;;;;;;5048898;28;20458;-70
2022/07/05 11:38:30;;;;;;;3.20;2.30;;;27.60;57.60;;;;;;5049827;28;20492;-69
2022/07/05 11:41:11;;;;;;;1.73;1.63;;;27.70;59.70;;;;;;5064778;28;20442;-70
2022/07/05 11:43:40;;;;;;;3.67;1.33;;;27.70;60.70;;;;;;5049979;28;20466;-70
2022/07/05 11:46:08;;;;;;;2.63;1.70;;;28.10;60.60;;;;;;5053201;28;20840;-71
2022/07/05 11:48:34;;;;;;;2.07;1.63;;;28.60;61.30;;;;;;5054256;28;20573;-70
2022/07/05 11:51:13;;;;;;;2.33;2.00;;;29.60;59.70;;;;;;5062780;28;20459;-70
2022/07/05 11:53:42;;;;;;;1.60;1.50;;;29.70;57.90;;;;;;5057597;28;20546;-70
2022/07/05 11:56:09;;;;;;;1.70;1.50;;;29.00;58.40;;;;;;5053103;28;21013;-69
2022/07/05 11:58:36;;;;;;;1.70;1.50;;;28.20;59.40;;;;;;5055068;28;20477;-70
2022/07/05 12:01:05;;;;;;;1.50;1.30;;;27.80;60.90;;;;;;5062184;28;21318;-70
2022/07/05 12:03:33;;;;;;;2.17;1.23;;;27.60;59.70;;;;;;5048319;28;20463;-70
2022/07/05 12:06:10;;;;;;;2.80;1.30;;;27.90;61.80;;;;;;5051391;28;20479;-71
2022/07/05 12:08:37;;;;;;;1.83;1.60;;;29.50;59.90;;;;;;5051472;28;20483;-70
2022/07/05 12:13:51;;;;;;;3.83;1.80;;;28.80;57.40;;;;;;5049618;28;21093;-70
2022/07/05 12:16:20;;;;;;;2.80;1.17;;;29.10;58.20;;;;;;5053870;28;20468;-70
2022/07/05 12:18:51;;;;;;;1.70;1.30;;;28.90;58.70;;;;;;5056283;28;20486;-70
2022/07/05 12:21:20;;;;;;;5.70;1.60;;;28.20;61.00;;;;;;5049276;28;21028;-70
2022/07/05 12:23:48;;;;;;;2.90;1.50;;;28.30;61.90;;;;;;5051119;28;20470;-70
2022/07/05 12:26:15;;;;;;;1.43;1.33;;;28.90;61.00;;;;;;5061402;28;20483;-70
2022/07/05 12:28:43;;;;;;;2.83;1.63;;;29.30;60.40;;;;;;5054053;28;20511;-70
2022/07/05 12:31:22;;;;;;;3.00;1.60;;;29.50;59.90;;;;;;5047617;28;20552;-70
2022/07/05 12:33:50;;;;;;;1.90;1.70;;;30.30;58.00;;;;;;5049563;28;20491;-70
2022/07/05 12:36:19;;;;;;;3.10;1.50;;;29.90;57.50;;;;;;5050989;28;20464;-69
2022/07/05 12:38:46;;;;;;;2.13;1.57;;;28.70;57.60;;;;;;5049098;28;20484;-70
2022/07/05 12:41:22;;;;;;;2.00;1.80;;;27.80;59.60;;;;;;5048510;28;20459;-70
2022/07/05 12:43:51;;;;;;;2.87;1.93;;;28.40;60.30;;;;;;5057267;28;20937;-70
2022/07/05 12:46:17;;;;;;;2.73;1.60;;;29.30;58.00;;;;;;5050322;28;21082;-70
2022/07/05 12:48:52;;;;;;;1.80;1.50;;;28.80;58.50;;;;;;5052145;28;20494;-70
2022/07/05 12:51:32;;;;;;;1.83;1.57;;;29.00;59.40;;;;;;5058889;28;20454;-70
2022/07/05 12:59:41;;;;;;;2.07;1.47;;;30.10;56.80;;;;;;5030931;28;20455;-71
2022/07/05 13:02:08;;;;;;;1.87;1.30;;;29.30;58.20;;;;;;5055186;28;20452;-70
2022/07/05 13:04:36;;;;;;;1.50;1.40;;;29.10;59.50;;;;;;5060253;28;20546;-70
2022/07/05 13:07:04;;;;;;;3.63;1.50;;;30.50;57.50;;;;;;5049500;28;20497;-70
2022/07/05 13:09:34;;;;;;;1.60;1.40;;;31.20;54.40;;;;;;5051658;28;21025;-70
2022/07/05 13:12:09;;;;;;;1.97;1.43;;;31.50;54.90;;;;;;5051145;28;20460;-70